11°C Temp
10°C Dewpoint
94% Humidity
Temperature
10 KM/H
6 MPH
5 KTS
260°
Due West

Wind Speed
Light Rain
Showers
Pressure 998.92 (hPa) - 29.5 (in)
Visibility 6.2 (mi) - 10.0 (km)

Current Conditions
EGNJ
Location 20(mi)
Metar :EGNJ 240050Z AUTO 26005KT 9999 -RA SCT034/// BKN042/// OVC048/// 11/10 Q0999
Tue 24th May 01:50 am

Airport
  Metar Aviation API Data Provided by https://www.checkwx.com/ PHP scripts by weather34.com ©2022